createdAt,value
2023-05-06T00:01:25.527Z,13.94
2023-05-06T00:03:54.056Z,13.98
2023-05-06T00:06:22.488Z,14.31
2023-05-06T00:08:50.554Z,13.42
2023-05-06T00:11:18.575Z,13.60
2023-05-06T00:13:46.509Z,13.40
2023-05-06T00:16:14.452Z,13.36
2023-05-06T00:18:43.832Z,13.10
2023-05-06T00:21:11.934Z,13.18
2023-05-06T00:23:39.805Z,13.46
2023-05-06T00:26:07.773Z,13.31
2023-05-06T00:28:35.707Z,13.44
2023-05-06T00:31:03.660Z,12.98
2023-05-06T00:33:31.558Z,13.19
2023-05-06T00:36:00.920Z,12.94
2023-05-06T00:38:29.048Z,13.08
2023-05-06T00:40:57.014Z,13.07
2023-05-06T00:43:26.370Z,12.74
2023-05-06T00:45:54.564Z,12.65
2023-05-06T00:48:23.084Z,12.83
2023-05-06T00:50:51.185Z,12.71
2023-05-06T00:53:22.853Z,13.01
2023-05-06T00:55:51.269Z,12.96
2023-05-06T00:58:20.693Z,12.66
2023-05-06T01:00:49.429Z,12.85
2023-05-06T01:03:17.379Z,12.91
2023-05-06T01:05:52.300Z,12.55
2023-05-06T01:08:28.617Z,12.89
2023-05-06T01:11:00.290Z,12.64
2023-05-06T01:13:36.208Z,12.76
2023-05-06T01:16:07.327Z,12.96
2023-05-06T01:18:37.343Z,12.52
2023-05-06T01:21:06.991Z,12.90
2023-05-06T01:23:55.225Z,12.83
2023-05-06T01:26:23.267Z,12.95
2023-05-06T01:28:51.447Z,12.74
2023-05-06T01:31:26.702Z,12.78
2023-05-06T01:34:07.299Z,12.89
2023-05-06T01:36:42.154Z,13.01
2023-05-06T01:39:19.162Z,12.58
2023-05-06T01:41:49.885Z,12.48
2023-05-06T01:44:18.596Z,12.87
2023-05-06T01:46:47.280Z,12.84
2023-05-06T01:49:23.693Z,12.86
2023-05-06T01:51:52.537Z,12.45
2023-05-06T01:54:21.847Z,12.76
2023-05-06T01:56:49.759Z,12.68
2023-05-06T01:59:17.699Z,12.62
2023-05-06T02:01:45.665Z,12.79
2023-05-06T02:04:13.563Z,12.98
2023-05-06T02:06:42.095Z,12.71
2023-05-06T02:09:10.048Z,12.82
2023-05-06T02:11:44.069Z,12.64
2023-05-06T02:14:12.828Z,12.75
2023-05-06T02:16:40.837Z,12.58
2023-05-06T02:19:08.776Z,12.54
2023-05-06T02:21:36.960Z,12.54
2023-05-06T02:24:05.428Z,12.55
2023-05-06T02:26:33.366Z,12.57
2023-05-06T02:29:02.699Z,12.53
2023-05-06T02:31:31.807Z,12.82
2023-05-06T02:33:59.746Z,12.39
2023-05-06T02:36:27.624Z,12.50
2023-05-06T02:38:56.034Z,12.40
2023-05-06T02:41:23.942Z,11.89
2023-05-06T02:43:53.268Z,11.56
2023-05-06T02:46:23.098Z,11.93
2023-05-06T02:48:51.131Z,11.87
2023-05-06T02:51:19.078Z,11.70
2023-05-06T02:53:46.984Z,11.78
2023-05-06T02:56:14.952Z,11.79
2023-05-06T02:58:42.905Z,11.79
2023-05-06T03:01:10.996Z,11.65
2023-05-06T03:03:40.405Z,11.79
2023-05-06T03:06:08.413Z,12.00
2023-05-06T03:08:36.346Z,11.83
2023-05-06T03:11:06.807Z,11.64
2023-05-06T03:13:36.060Z,11.47
2023-05-06T03:16:04.331Z,11.69
2023-05-06T03:18:32.710Z,12.08
2023-05-06T03:21:02.273Z,11.81
2023-05-06T03:23:31.291Z,11.90
2023-05-06T03:25:59.355Z,11.76
2023-05-06T03:28:28.112Z,12.23
2023-05-06T03:30:56.259Z,11.70
2023-05-06T03:33:24.600Z,11.77
2023-05-06T03:35:52.611Z,11.35
2023-05-06T03:38:22.062Z,11.61
2023-05-06T03:40:56.830Z,11.43
2023-05-06T03:43:25.745Z,11.50
2023-05-06T03:45:57.948Z,11.96
2023-05-06T03:48:25.917Z,11.60
2023-05-06T03:50:54.646Z,11.78
2023-05-06T03:53:24.500Z,11.72
2023-05-06T03:55:53.136Z,11.54
2023-05-06T03:58:21.331Z,11.52
2023-05-06T04:00:49.344Z,11.58
2023-05-06T04:03:18.220Z,11.48
2023-05-06T04:05:50.624Z,11.35
2023-05-06T04:08:21.965Z,11.70
2023-05-06T04:10:51.468Z,11.56
2023-05-06T04:13:29.001Z,11.58
2023-05-06T04:15:59.505Z,11.79
2023-05-06T04:18:34.348Z,11.74
2023-05-06T04:21:07.111Z,11.67
2023-05-06T04:23:37.857Z,11.52
2023-05-06T04:26:08.356Z,11.69
2023-05-06T04:28:38.651Z,11.78
2023-05-06T04:31:08.580Z,11.88
2023-05-06T04:33:42.360Z,11.67
2023-05-06T04:36:14.820Z,11.49
2023-05-06T04:38:52.903Z,11.51
2023-05-06T04:41:23.743Z,11.51
2023-05-06T04:43:51.676Z,11.57
2023-05-06T04:46:24.087Z,11.89
2023-05-06T04:48:54.258Z,11.99
2023-05-06T04:51:24.126Z,11.70
2023-05-06T04:53:53.188Z,11.69
2023-05-06T04:56:22.583Z,11.54
2023-05-06T04:58:51.355Z,11.80
2023-05-06T05:01:20.933Z,11.81
2023-05-06T05:03:49.391Z,11.79
2023-05-06T05:06:18.255Z,11.52
2023-05-06T05:08:46.506Z,11.46
2023-05-06T05:11:14.466Z,11.77
2023-05-06T05:13:43.814Z,11.69
2023-05-06T05:16:12.116Z,11.41
2023-05-06T05:18:43.145Z,11.57
2023-05-06T05:21:17.861Z,11.76
2023-05-06T05:23:45.824Z,11.86
2023-05-06T05:26:14.097Z,11.98
2023-05-06T05:28:45.779Z,11.99
2023-05-06T05:31:14.140Z,11.91
2023-05-06T05:33:43.126Z,12.08
2023-05-06T05:36:15.422Z,12.21
2023-05-06T05:38:47.786Z,12.03
2023-05-06T05:41:17.579Z,12.03
2023-05-06T05:43:48.200Z,12.28
2023-05-06T05:46:17.803Z,12.30
2023-05-06T05:48:48.374Z,12.22
2023-05-06T05:51:16.516Z,12.21
2023-05-06T05:53:45.625Z,12.44
2023-05-06T05:56:15.023Z,12.38
2023-05-06T05:58:43.405Z,12.31
2023-05-06T06:01:13.051Z,11.92
2023-05-06T06:03:42.235Z,12.31
2023-05-06T06:06:10.641Z,12.51
2023-05-06T06:08:39.102Z,12.49
2023-05-06T06:11:07.778Z,12.53
2023-05-06T06:13:40.649Z,12.42
2023-05-06T06:16:09.642Z,12.70
2023-05-06T06:18:38.969Z,12.47
2023-05-06T06:21:07.057Z,12.15
2023-05-06T06:23:36.272Z,12.24
2023-05-06T06:26:04.676Z,12.45
2023-05-06T06:28:34.143Z,12.10
2023-05-06T06:31:02.893Z,12.25
2023-05-06T06:33:30.807Z,12.21
2023-05-06T06:36:00.185Z,12.05
2023-05-06T06:38:28.097Z,12.04
2023-05-06T06:40:55.983Z,12.23
2023-05-06T06:43:24.760Z,12.07
2023-05-06T06:46:03.115Z,12.24
2023-05-06T06:48:31.389Z,12.43
2023-05-06T06:51:00.701Z,12.42
2023-05-06T06:53:28.661Z,12.29
2023-05-06T06:55:56.539Z,11.96
2023-05-06T06:58:24.464Z,12.26
2023-05-06T07:00:52.335Z,12.18
2023-05-06T07:03:20.383Z,12.04
2023-05-06T07:05:48.261Z,12.05
2023-05-06T07:08:18.081Z,12.23
2023-05-06T07:10:46.099Z,11.93
2023-05-06T07:13:14.212Z,12.06
2023-05-06T07:15:42.158Z,12.12
2023-05-06T07:18:10.899Z,12.15
2023-05-06T07:20:39.022Z,11.71
2023-05-06T07:23:07.012Z,11.88
2023-05-06T07:25:36.322Z,12.12
2023-05-06T07:28:05.023Z,11.63
2023-05-06T07:30:33.516Z,11.85
2023-05-06T07:33:01.555Z,12.01
2023-05-06T07:35:29.585Z,12.21
2023-05-06T07:37:57.598Z,12.23
2023-05-06T07:40:25.972Z,12.43
2023-05-06T07:42:55.755Z,12.34
2023-05-06T07:45:25.139Z,12.34
2023-05-06T07:47:53.302Z,12.32
2023-05-06T07:50:21.336Z,12.37
2023-05-06T07:52:49.258Z,12.39
2023-05-06T07:55:17.317Z,12.57
2023-05-06T07:57:45.264Z,12.57
2023-05-06T08:00:15.495Z,12.18
2023-05-06T08:02:47.791Z,12.18
2023-05-06T08:05:17.279Z,12.26
2023-05-06T08:07:45.180Z,12.38
2023-05-06T08:10:13.226Z,12.31
2023-05-06T08:12:41.140Z,12.38
2023-05-06T08:15:10.602Z,12.40
2023-05-06T08:17:40.180Z,12.13
2023-05-06T08:20:09.282Z,12.24
2023-05-06T08:22:37.116Z,12.00
2023-05-06T08:25:05.332Z,12.13
2023-05-06T08:27:33.259Z,12.19
2023-05-06T08:30:01.271Z,12.15
2023-05-06T08:32:29.229Z,12.25
2023-05-06T08:34:59.797Z,12.34
2023-05-06T08:37:27.839Z,12.36
2023-05-06T08:39:56.286Z,12.32
2023-05-06T08:42:26.944Z,12.42
2023-05-06T08:44:57.088Z,12.47
2023-05-06T08:47:25.112Z,12.64
2023-05-06T08:49:53.483Z,12.27
2023-05-06T08:52:23.579Z,11.97
2023-05-06T08:54:54.567Z,12.33
2023-05-06T08:57:22.767Z,12.22
2023-05-06T08:59:51.618Z,12.47
2023-05-06T09:02:19.753Z,12.52
2023-05-06T09:04:48.463Z,12.37
2023-05-06T09:07:16.433Z,12.56
2023-05-06T09:09:45.827Z,12.39
2023-05-06T09:12:15.092Z,12.47
2023-05-06T09:14:43.710Z,12.60
2023-05-06T09:17:23.691Z,12.63
2023-05-06T09:19:53.338Z,12.42
2023-05-06T09:22:23.103Z,12.37
2023-05-06T09:24:56.679Z,12.33
2023-05-06T09:27:26.166Z,12.63
2023-05-06T09:30:01.916Z,12.54
2023-05-06T09:32:30.080Z,12.86
2023-05-06T09:34:58.318Z,12.87
2023-05-06T09:37:27.297Z,12.65
2023-05-06T09:39:57.676Z,12.92
2023-05-06T09:42:28.667Z,13.01
2023-05-06T09:44:59.865Z,12.84
2023-05-06T09:47:34.827Z,12.75
2023-05-06T09:50:02.658Z,13.10
2023-05-06T09:52:31.553Z,12.93
2023-05-06T09:55:02.454Z,12.95
2023-05-06T09:57:31.603Z,12.71
2023-05-06T10:00:01.145Z,12.72
2023-05-06T10:02:30.183Z,12.80
2023-05-06T10:05:00.587Z,13.05
2023-05-06T10:07:29.916Z,13.19
2023-05-06T10:10:01.354Z,13.10
2023-05-06T10:12:30.227Z,13.04
2023-05-06T10:14:58.345Z,12.90
2023-05-06T10:21:21.970Z,12.95
2023-05-06T10:23:56.445Z,13.19
2023-05-06T10:26:55.883Z,13.35
2023-05-06T10:29:27.244Z,13.39
2023-05-06T10:31:56.450Z,13.11
2023-05-06T10:34:26.272Z,13.11
2023-05-06T10:36:57.976Z,13.15
2023-05-06T10:39:26.952Z,12.99
2023-05-06T10:41:56.230Z,13.23
2023-05-06T10:44:57.385Z,13.05
2023-05-06T10:47:25.450Z,13.18
2023-05-06T10:50:21.005Z,13.22
2023-05-06T10:52:51.374Z,13.41
2023-05-06T10:55:30.760Z,13.40
2023-05-06T10:58:04.344Z,12.84
2023-05-06T11:00:32.724Z,12.84
2023-05-06T11:03:03.842Z,13.08
2023-05-06T11:05:31.908Z,13.03
2023-05-06T11:08:10.084Z,13.22
2023-05-06T11:10:38.347Z,13.10
2023-05-06T11:13:26.244Z,12.65
2023-05-06T11:15:54.974Z,12.28
2023-05-06T11:18:44.966Z,12.52
2023-05-06T11:21:41.040Z,12.63
2023-05-06T11:24:10.651Z,12.78
2023-05-06T11:26:40.789Z,12.41
2023-05-06T11:29:10.368Z,12.53
2023-05-06T11:31:43.533Z,12.70
2023-05-06T11:34:15.325Z,12.89
2023-05-06T11:36:50.860Z,12.89
2023-05-06T11:39:18.985Z,12.35
2023-05-06T11:41:46.918Z,12.62
2023-05-06T11:44:29.779Z,12.60
2023-05-06T11:46:59.181Z,12.69
2023-05-06T11:49:27.957Z,12.85
2023-05-06T11:51:57.065Z,12.49
2023-05-06T11:54:27.131Z,12.73
2023-05-06T11:56:57.231Z,12.64
2023-05-06T11:59:34.209Z,12.79
2023-05-06T12:02:03.340Z,12.85
2023-05-06T12:04:39.142Z,12.69
2023-05-06T12:07:07.998Z,12.88
2023-05-06T12:09:37.130Z,12.98
2023-05-06T12:12:06.985Z,12.43
2023-05-06T12:14:36.594Z,12.64
2023-05-06T12:17:05.405Z,12.85
2023-05-06T12:19:33.678Z,12.97
2023-05-06T12:22:15.690Z,12.43
2023-05-06T12:24:43.651Z,12.59
2023-05-06T12:27:11.647Z,12.91
2023-05-06T12:29:41.023Z,12.49
2023-05-06T12:32:10.749Z,12.71
2023-05-06T12:34:39.734Z,12.70
2023-05-06T12:37:08.561Z,12.89
2023-05-06T12:39:37.076Z,13.01
2023-05-06T12:42:05.259Z,13.09
2023-05-06T12:44:37.581Z,12.65
2023-05-06T12:47:08.831Z,12.82
2023-05-06T12:49:47.914Z,12.76
2023-05-06T12:52:16.689Z,12.84
2023-05-06T12:54:44.940Z,12.93
2023-05-06T12:57:13.217Z,13.01
2023-05-06T12:59:41.543Z,12.95
2023-05-06T13:02:11.119Z,12.68
2023-05-06T13:04:39.384Z,12.71
2023-05-06T13:07:07.379Z,12.81
2023-05-06T13:09:35.365Z,12.72
2023-05-06T13:12:04.580Z,12.26
2023-05-06T13:14:32.522Z,12.57
2023-05-06T13:17:04.723Z,12.50
2023-05-06T13:19:34.261Z,12.68
2023-05-06T13:22:02.813Z,12.57
2023-05-06T13:24:30.959Z,12.83
2023-05-06T13:27:00.727Z,12.93
2023-05-06T13:29:29.478Z,12.84
2023-05-06T13:31:57.683Z,12.90
2023-05-06T13:34:26.046Z,12.81
2023-05-06T13:36:56.508Z,12.98
2023-05-06T13:39:24.999Z,12.60
2023-05-06T13:41:54.100Z,12.82
2023-05-06T13:44:24.471Z,12.99
2023-05-06T13:46:52.533Z,13.27
2023-05-06T13:49:20.677Z,13.13
2023-05-06T13:51:48.885Z,12.91
2023-05-06T13:54:18.329Z,13.12
2023-05-06T13:56:46.542Z,12.99
2023-05-06T13:59:14.427Z,12.78
2023-05-06T14:01:43.102Z,12.80
2023-05-06T14:04:11.103Z,12.23
2023-05-06T14:06:39.078Z,12.66
2023-05-06T14:09:07.079Z,12.74
2023-05-06T14:11:36.340Z,12.91
2023-05-06T14:14:04.484Z,13.11
2023-05-06T14:16:32.496Z,12.79
2023-05-06T14:19:00.705Z,12.89
2023-05-06T14:21:28.617Z,12.49
2023-05-06T14:23:56.930Z,12.49
2023-05-06T14:26:25.072Z,12.44
2023-05-06T14:28:54.487Z,12.52
2023-05-06T14:31:23.407Z,12.62
2023-05-06T14:33:51.360Z,12.53
2023-05-06T14:36:19.953Z,12.58
2023-05-06T14:38:47.869Z,12.50
2023-05-06T14:41:15.745Z,12.43
2023-05-06T14:43:43.602Z,12.79
2023-05-06T14:46:14.666Z,12.86
2023-05-06T14:48:43.495Z,12.91
2023-05-06T14:51:11.449Z,12.72
2023-05-06T14:53:39.370Z,12.81
2023-05-06T14:56:09.513Z,12.48
2023-05-06T14:58:37.502Z,11.96
2023-05-06T15:01:05.903Z,12.10
2023-05-06T15:03:36.293Z,12.62
2023-05-06T15:06:04.548Z,12.70
2023-05-06T15:08:32.658Z,12.25
2023-05-06T15:11:03.073Z,12.44
2023-05-06T15:13:31.891Z,12.46
2023-05-06T15:15:59.797Z,12.48
2023-05-06T15:18:27.656Z,12.63
2023-05-06T15:20:58.759Z,12.54
2023-05-06T15:23:26.668Z,12.46
2023-05-06T15:25:54.728Z,12.61
2023-05-06T15:28:24.582Z,12.39
2023-05-06T15:30:52.864Z,12.52
2023-05-06T15:33:20.780Z,12.22
2023-05-06T15:35:48.647Z,12.48
2023-05-06T15:38:17.897Z,12.62
2023-05-06T15:40:51.084Z,12.68
2023-05-06T15:43:23.773Z,12.67
2023-05-06T15:46:17.504Z,12.82
2023-05-06T15:48:45.772Z,12.62
2023-05-06T15:51:13.637Z,12.30
2023-05-06T15:53:43.349Z,12.23
2023-05-06T15:56:18.051Z,12.35
2023-05-06T15:58:46.761Z,12.65
2023-05-06T16:01:14.790Z,12.60
2023-05-06T16:03:43.004Z,12.56
2023-05-06T16:06:11.989Z,12.71
2023-05-06T16:08:40.074Z,12.01
2023-05-06T16:11:09.461Z,12.28
2023-05-06T16:13:37.505Z,12.30
2023-05-06T16:16:06.381Z,12.33
2023-05-06T16:18:34.915Z,11.99
2023-05-06T16:21:02.829Z,12.62
2023-05-06T16:23:30.792Z,12.29
2023-05-06T16:26:32.218Z,12.40
2023-05-06T16:29:06.722Z,12.48
2023-05-06T16:31:35.077Z,12.17
2023-05-06T16:34:02.959Z,11.81
2023-05-06T16:36:31.500Z,12.16
2023-05-06T16:38:59.482Z,11.52
2023-05-06T16:41:28.698Z,12.03
2023-05-06T16:43:56.577Z,12.32
2023-05-06T16:46:24.788Z,12.43
2023-05-06T16:48:53.836Z,12.45
2023-05-06T16:51:21.993Z,12.46
2023-05-06T16:53:50.155Z,12.40
2023-05-06T16:56:18.142Z,12.38
2023-05-06T16:58:47.399Z,12.58
2023-05-06T17:01:15.303Z,12.73
2023-05-06T17:03:43.282Z,12.33
2023-05-06T17:06:11.506Z,12.09
2023-05-06T17:08:39.595Z,12.32
2023-05-06T17:11:08.433Z,12.49
2023-05-06T17:13:36.430Z,12.21
2023-05-06T17:16:06.096Z,12.33
2023-05-06T17:18:34.055Z,11.99
2023-05-06T17:21:02.149Z,12.37
2023-05-06T17:23:30.344Z,12.13
2023-05-06T17:25:58.294Z,11.99
2023-05-06T17:28:26.294Z,11.34
2023-05-06T17:30:54.233Z,11.96
2023-05-06T17:33:23.485Z,11.60
2023-05-06T17:35:51.430Z,11.71
2023-05-06T17:38:19.326Z,11.97
2023-05-06T17:40:47.247Z,11.70
2023-05-06T17:43:15.419Z,12.17
2023-05-06T17:45:43.331Z,12.11
2023-05-06T17:48:11.357Z,11.90
2023-05-06T17:50:40.846Z,11.56
2023-05-06T17:53:08.692Z,12.15
2023-05-06T17:55:36.866Z,12.29
2023-05-06T17:58:04.816Z,11.74
2023-05-06T18:00:33.004Z,11.91
2023-05-06T18:03:00.999Z,12.09
2023-05-06T18:05:29.233Z,12.45
2023-05-06T18:07:58.675Z,12.39
2023-05-06T18:10:26.920Z,12.30
2023-05-06T18:12:55.486Z,12.48
2023-05-06T18:15:23.580Z,12.18
2023-05-06T18:17:51.680Z,11.53
2023-05-06T18:20:19.751Z,11.74
2023-05-06T18:22:47.656Z,11.90
2023-05-06T18:25:16.983Z,12.09
2023-05-06T18:27:44.890Z,12.11
2023-05-06T18:30:13.235Z,11.73
2023-05-06T18:32:41.117Z,11.47
2023-05-06T18:35:10.889Z,11.53
2023-05-06T18:37:39.228Z,12.08
2023-05-06T18:40:09.654Z,12.32
2023-05-06T18:42:38.959Z,12.12
2023-05-06T18:45:08.540Z,12.07
2023-05-06T18:47:37.979Z,12.18
2023-05-06T18:50:06.794Z,12.37
2023-05-06T18:52:36.094Z,12.38
2023-05-06T18:55:05.122Z,12.45
2023-05-06T18:57:33.373Z,11.90
2023-05-06T19:00:02.701Z,12.03
2023-05-06T19:02:30.679Z,12.18
2023-05-06T19:04:58.579Z,12.05
2023-05-06T19:07:26.509Z,12.26
2023-05-06T19:09:54.953Z,12.24
2023-05-06T19:12:23.240Z,11.70
2023-05-06T19:14:51.189Z,11.94
2023-05-06T19:17:20.730Z,11.85
2023-05-06T19:19:49.120Z,11.90
2023-05-06T19:22:17.318Z,11.74
2023-05-06T19:24:45.302Z,11.49
2023-05-06T19:27:13.223Z,11.66
2023-05-06T19:29:41.111Z,11.95
2023-05-06T19:32:09.636Z,11.99
2023-05-06T19:34:38.878Z,11.79
2023-05-06T19:37:06.735Z,11.89
2023-05-06T19:39:34.604Z,11.78
2023-05-06T19:42:02.515Z,12.13
2023-05-06T19:44:30.433Z,12.18
2023-05-06T19:46:58.370Z,11.43
2023-05-06T19:49:26.246Z,11.65
2023-05-06T19:51:55.443Z,11.76
2023-05-06T19:54:23.309Z,11.90
2023-05-06T19:56:51.256Z,12.06
2023-05-06T19:59:19.165Z,12.04
2023-05-06T20:01:48.724Z,11.93
2023-05-06T20:04:16.740Z,11.93
2023-05-06T20:06:44.599Z,11.83
2023-05-06T20:09:13.922Z,11.81
2023-05-06T20:11:41.995Z,11.93
2023-05-06T20:14:10.051Z,11.59
2023-05-06T20:16:38.916Z,11.56
2023-05-06T20:19:07.754Z,11.77
2023-05-06T20:21:35.700Z,11.44
2023-05-06T20:24:03.647Z,11.72
2023-05-06T20:26:32.973Z,11.64
2023-05-06T20:29:01.489Z,11.62
2023-05-06T20:31:29.480Z,11.42
2023-05-06T20:33:57.383Z,11.09
2023-05-06T20:36:26.803Z,11.32
2023-05-06T20:38:54.724Z,11.60
2023-05-06T20:41:22.669Z,11.59
2023-05-06T20:43:53.885Z,11.65
2023-05-06T20:46:21.876Z,11.38
2023-05-06T20:48:51.417Z,11.71
2023-05-06T20:51:19.604Z,11.60
2023-05-06T20:53:47.469Z,11.60
2023-05-06T20:56:20.549Z,11.80
2023-05-06T20:58:48.809Z,11.26
2023-05-06T21:01:18.196Z,11.17
2023-05-06T21:03:47.229Z,11.36
2023-05-06T21:06:15.814Z,11.52
2023-05-06T21:08:43.947Z,11.57
2023-05-06T21:11:11.878Z,11.14
2023-05-06T21:13:40.747Z,11.70
2023-05-06T21:16:09.133Z,11.82
2023-05-06T21:18:38.387Z,12.01
2023-05-06T21:21:06.339Z,12.16
2023-05-06T21:23:35.324Z,12.11
2023-05-06T21:26:03.427Z,11.93
2023-05-06T21:28:31.522Z,11.98
2023-05-06T21:30:59.511Z,11.65
2023-05-06T21:33:27.482Z,11.51
2023-05-06T21:35:56.807Z,11.71
2023-05-06T21:38:24.777Z,11.80
2023-05-06T21:40:52.749Z,11.68
2023-05-06T21:43:20.742Z,11.58
2023-05-06T21:45:48.637Z,11.61
2023-05-06T21:48:16.615Z,11.25
2023-05-06T21:50:44.823Z,11.29
2023-05-06T21:53:14.150Z,11.59
2023-05-06T21:55:42.126Z,11.76
2023-05-06T21:58:10.034Z,11.81
2023-05-06T22:00:38.038Z,12.03
2023-05-06T22:03:06.038Z,11.86
2023-05-06T22:05:34.073Z,11.96
2023-05-06T22:08:01.984Z,12.18
2023-05-06T22:10:31.422Z,12.31
2023-05-06T22:12:59.411Z,12.22
2023-05-06T22:15:27.386Z,12.18
2023-05-06T22:17:55.349Z,12.13
2023-05-06T22:20:23.862Z,12.12
2023-05-06T22:22:52.524Z,12.16
2023-05-06T22:25:20.751Z,12.05
2023-05-06T22:27:50.113Z,11.76
2023-05-06T22:30:18.170Z,11.72
2023-05-06T22:32:46.486Z,11.32
2023-05-06T22:35:14.642Z,11.64
2023-05-06T22:37:42.693Z,11.38
2023-05-06T22:40:11.815Z,11.45
2023-05-06T22:42:39.752Z,11.22
2023-05-06T22:45:11.110Z,11.37
2023-05-06T22:47:39.217Z,11.17
2023-05-06T22:50:08.936Z,11.27
2023-05-06T22:52:36.854Z,11.31
2023-05-06T22:55:05.830Z,11.49
2023-05-06T22:57:33.785Z,11.61
2023-05-06T23:00:01.704Z,11.94
2023-05-06T23:02:31.010Z,11.95
2023-05-06T23:04:59.370Z,11.44
2023-05-06T23:07:27.262Z,11.45
2023-05-06T23:09:55.098Z,11.66
2023-05-06T23:12:22.970Z,11.67
2023-05-06T23:14:50.891Z,11.60
2023-05-06T23:17:18.741Z,12.00
2023-05-06T23:19:47.961Z,12.07
2023-05-06T23:22:15.770Z,11.71
2023-05-06T23:24:43.644Z,11.76
2023-05-06T23:27:11.602Z,11.46
2023-05-06T23:29:39.466Z,11.95
2023-05-06T23:32:07.857Z,11.90
2023-05-06T23:34:35.778Z,11.59
2023-05-06T23:37:05.016Z,11.65
2023-05-06T23:39:32.920Z,11.93
2023-05-06T23:42:02.198Z,11.49
2023-05-06T23:44:30.220Z,11.80
2023-05-06T23:46:58.229Z,11.59
2023-05-06T23:49:26.147Z,11.51
2023-05-06T23:51:53.962Z,11.93
2023-05-06T23:54:23.255Z,12.06
2023-05-06T23:56:51.455Z,11.88
2023-05-06T23:59:19.323Z,11.98
